ムンバイ の空港の天気 - METARとTAF

チャットラパティー・シヴァージー国際空港 ( VABB / BOM ) - インド ムンバイ
飛行場実況気象(Metar)
観測時間12/01 01:30 IST (11/30 20:00 UTC)
風向・風速北北東 2m/s
視程3000m
天気現象煙霧
なし
気温28℃
湿度66%
気圧1013hPa
METARVABB 302000Z 03003KT 3000 HZ NSC 28/21 Q1013 NOSIG
過去の天気等 Google飛行場航空写真 Wunderground天気予報

過去48時間のMETAR

飛行場予報(TAF)
発表時間: 11/30 22:30 IST (11/30 17:00 UTC)
予報対象時間: 30日23時 IST ~ 1日8時 IST
風向・風速北北西 3m/s
視程3000m
天気現象煙霧
なし
1日2時 IST ~ 1日4時 IST に徐々に
風向・風速東 3m/s
視程2500m
天気現象煙霧
TAF VABB 301700Z 3018/0103 33005KT 3000 HZ NSC
BECMG 3021/3023 09005KT 2500 HZ